createdAt,value
2017-08-16T00:01:10.605Z,21.20
2017-08-16T00:03:36.712Z,21.20
2017-08-16T00:06:02.768Z,21.20
2017-08-16T00:08:28.891Z,21.20
2017-08-16T00:10:54.974Z,21.20
2017-08-16T00:13:21.044Z,21.20
2017-08-16T00:15:47.118Z,21.30
2017-08-16T00:18:13.932Z,21.30
2017-08-16T00:20:40.006Z,21.30
2017-08-16T00:23:06.108Z,21.20
2017-08-16T00:25:32.925Z,21.10
2017-08-16T00:27:59.055Z,21.10
2017-08-16T00:30:25.135Z,21.10
2017-08-16T00:32:51.227Z,21.10
2017-08-16T00:35:18.093Z,21.20
2017-08-16T00:37:44.163Z,21.20
2017-08-16T00:40:10.229Z,21.20
2017-08-16T00:42:37.045Z,21.00
2017-08-16T00:45:03.106Z,21.00
2017-08-16T00:47:29.157Z,21.00
2017-08-16T00:49:55.227Z,21.10
2017-08-16T00:52:21.294Z,21.20
2017-08-16T00:54:47.371Z,21.30
2017-08-16T00:57:13.517Z,21.40
2017-08-16T00:59:39.573Z,21.50
2017-08-16T01:02:05.702Z,21.60
2017-08-16T01:04:31.798Z,21.70
2017-08-16T01:06:58.596Z,21.90
2017-08-16T01:09:24.659Z,21.80
2017-08-16T01:11:51.487Z,22.00
2017-08-16T01:14:17.557Z,21.90
2017-08-16T01:16:43.669Z,21.30
2017-08-16T01:19:09.733Z,20.80
2017-08-16T01:21:35.765Z,20.60
2017-08-16T01:24:01.848Z,20.40
2017-08-16T01:26:27.897Z,20.30
2017-08-16T01:28:54.009Z,20.30
2017-08-16T01:31:20.116Z,20.20
2017-08-16T01:33:46.177Z,20.10
2017-08-16T01:36:12.288Z,19.90
2017-08-16T01:38:39.253Z,19.80
2017-08-16T01:41:05.378Z,19.80
2017-08-16T01:43:31.460Z,19.80
2017-08-16T01:45:58.275Z,19.70
2017-08-16T01:48:24.324Z,19.60
2017-08-16T01:50:51.142Z,19.60
2017-08-16T01:53:17.200Z,19.60
2017-08-16T01:55:43.979Z,19.70
2017-08-16T01:58:10.067Z,19.70
2017-08-16T02:00:36.869Z,19.60
2017-08-16T02:03:02.960Z,19.60
2017-08-16T02:05:29.068Z,19.60
2017-08-16T02:07:55.170Z,19.60
2017-08-16T02:10:21.982Z,19.70
2017-08-16T02:12:48.096Z,19.70
2017-08-16T02:15:14.170Z,19.80
2017-08-16T02:17:41.007Z,19.80
2017-08-16T02:20:07.846Z,19.80
2017-08-16T02:22:34.656Z,19.80
2017-08-16T02:25:00.749Z,19.80
2017-08-16T02:27:26.817Z,19.80
2017-08-16T02:29:52.897Z,19.80
2017-08-16T02:32:18.967Z,19.80
2017-08-16T02:34:45.027Z,19.80
2017-08-16T02:37:11.875Z,19.80
2017-08-16T02:39:38.675Z,19.90
2017-08-16T02:42:04.750Z,19.90
2017-08-16T02:44:30.867Z,19.90
2017-08-16T02:46:56.970Z,19.80
2017-08-16T02:49:23.086Z,19.80
2017-08-16T02:51:49.189Z,19.80
2017-08-16T02:54:15.236Z,19.80
2017-08-16T02:56:41.299Z,19.80
2017-08-16T02:59:07.397Z,19.80
2017-08-16T03:01:33.462Z,19.70
2017-08-16T03:03:59.504Z,19.80
2017-08-16T03:06:25.598Z,19.70
2017-08-16T03:08:51.742Z,19.80
2017-08-16T03:11:17.813Z,19.90
2017-08-16T03:13:43.901Z,19.90
2017-08-16T03:16:10.031Z,19.90
2017-08-16T03:18:36.128Z,19.90
2017-08-16T03:21:03.140Z,19.70
2017-08-16T03:23:29.210Z,19.70
2017-08-16T03:25:55.344Z,19.70
2017-08-16T03:28:21.469Z,19.70
2017-08-16T03:30:47.573Z,19.70
2017-08-16T03:33:14.384Z,19.60
2017-08-16T03:35:40.976Z,19.60
2017-08-16T03:38:07.092Z,19.60
2017-08-16T03:40:33.186Z,19.70
2017-08-16T03:42:59.254Z,19.70
2017-08-16T03:45:25.376Z,19.70
2017-08-16T03:47:51.539Z,19.70
2017-08-16T03:50:17.585Z,19.70
2017-08-16T03:52:43.726Z,19.80
2017-08-16T03:55:10.570Z,19.60
2017-08-16T03:57:37.452Z,19.50
2017-08-16T04:00:03.602Z,19.50
2017-08-16T04:02:29.755Z,19.40
2017-08-16T04:04:55.923Z,19.30
2017-08-16T04:07:21.992Z,19.30
2017-08-16T04:09:48.162Z,19.30
2017-08-16T04:12:14.323Z,19.20
2017-08-16T04:14:40.400Z,19.20
2017-08-16T04:17:07.221Z,19.20
2017-08-16T04:19:33.416Z,19.20
2017-08-16T04:21:59.572Z,19.20
2017-08-16T04:24:25.658Z,19.10
2017-08-16T04:26:51.720Z,19.20
2017-08-16T04:29:17.871Z,19.20
2017-08-16T04:31:43.963Z,19.20
2017-08-16T04:34:10.065Z,19.10
2017-08-16T04:36:36.151Z,19.20
2017-08-16T04:39:02.972Z,19.20
2017-08-16T04:41:29.085Z,19.20
2017-08-16T04:43:55.210Z,19.20
2017-08-16T04:46:21.270Z,19.20
2017-08-16T04:48:48.067Z,19.30
2017-08-16T04:51:15.083Z,19.30
2017-08-16T04:53:41.154Z,19.30
2017-08-16T04:56:07.234Z,19.40
2017-08-16T04:58:33.325Z,19.40
2017-08-16T05:01:00.170Z,19.40
2017-08-16T05:03:26.232Z,19.40
2017-08-16T05:05:52.313Z,19.50
2017-08-16T05:08:18.411Z,19.50
2017-08-16T05:10:44.486Z,19.60
2017-08-16T05:13:11.667Z,19.70
2017-08-16T05:15:37.773Z,19.70
2017-08-16T05:18:04.579Z,19.70
2017-08-16T05:20:30.665Z,19.70
2017-08-16T05:22:56.750Z,19.70
2017-08-16T05:25:23.575Z,19.70
2017-08-16T05:27:49.717Z,19.70
2017-08-16T05:30:15.823Z,19.70
2017-08-16T05:32:41.883Z,19.70
2017-08-16T05:35:08.720Z,19.80
2017-08-16T05:37:35.569Z,19.80
2017-08-16T05:40:02.396Z,19.80
2017-08-16T05:42:28.494Z,19.70
2017-08-16T05:44:54.576Z,19.70
2017-08-16T05:47:20.680Z,19.70
2017-08-16T05:49:47.546Z,19.80
2017-08-16T05:52:13.609Z,19.80
2017-08-16T05:54:39.670Z,19.80
2017-08-16T05:57:06.514Z,19.80
2017-08-16T05:59:33.328Z,19.80
2017-08-16T06:01:59.434Z,19.80
2017-08-16T06:04:25.497Z,19.80
2017-08-16T06:06:51.590Z,19.80
2017-08-16T06:09:17.748Z,19.90
2017-08-16T06:11:43.832Z,19.90
2017-08-16T06:14:09.904Z,19.90
2017-08-16T06:16:36.020Z,19.90
2017-08-16T06:19:02.100Z,20.00
2017-08-16T06:21:28.156Z,20.10
2017-08-16T06:23:54.249Z,20.10
2017-08-16T06:26:20.304Z,20.10
2017-08-16T06:28:46.362Z,20.10
2017-08-16T06:31:13.198Z,20.10
2017-08-16T06:33:39.288Z,20.10
2017-08-16T06:36:05.395Z,20.20
2017-08-16T06:38:31.486Z,20.20
2017-08-16T06:40:58.326Z,20.20
2017-08-16T06:43:24.442Z,20.20
2017-08-16T06:45:50.518Z,20.30
2017-08-16T06:48:16.574Z,20.30
2017-08-16T06:50:42.673Z,20.30
2017-08-16T06:53:08.755Z,20.40
2017-08-16T06:55:35.551Z,20.70
2017-08-16T06:58:01.636Z,20.70
2017-08-16T07:00:27.708Z,20.70
2017-08-16T07:02:53.795Z,20.90
2017-08-16T07:05:19.888Z,21.00
2017-08-16T07:07:45.947Z,21.10
2017-08-16T07:10:12.033Z,21.30
2017-08-16T07:12:38.152Z,21.30
2017-08-16T07:15:04.247Z,21.40
2017-08-16T07:17:30.299Z,21.50
2017-08-16T07:19:56.404Z,21.70
2017-08-16T07:22:22.480Z,21.70
2017-08-16T07:24:49.303Z,22.20
2017-08-16T07:27:15.365Z,22.20
2017-08-16T07:29:41.416Z,22.10
2017-08-16T07:32:07.481Z,22.10
2017-08-16T07:34:33.600Z,22.20
2017-08-16T07:36:59.650Z,22.30
2017-08-16T07:39:26.443Z,22.20
2017-08-16T07:41:52.547Z,22.10
2017-08-16T07:44:18.618Z,22.10
2017-08-16T07:46:44.665Z,22.00
2017-08-16T07:49:11.513Z,22.00
2017-08-16T07:51:38.315Z,22.10
2017-08-16T07:54:04.373Z,22.20
2017-08-16T07:56:31.193Z,21.60
2017-08-16T07:58:57.233Z,21.60
2017-08-16T08:01:23.309Z,21.70
2017-08-16T08:03:49.387Z,22.00
2017-08-16T08:06:16.876Z,21.70
2017-08-16T08:08:42.942Z,21.70
2017-08-16T08:11:09.069Z,21.80
2017-08-16T08:13:35.113Z,21.70
2017-08-16T08:16:01.213Z,21.70
2017-08-16T08:18:27.432Z,21.40
2017-08-16T08:20:53.514Z,21.30
2017-08-16T08:23:20.345Z,21.30
2017-08-16T08:25:47.186Z,21.30
2017-08-16T08:28:13.965Z,21.30
2017-08-16T08:30:40.011Z,21.20
2017-08-16T08:33:06.085Z,21.20
2017-08-16T08:35:32.890Z,21.10
2017-08-16T08:37:58.950Z,21.00
2017-08-16T08:40:25.811Z,21.00
2017-08-16T08:42:51.860Z,21.00
2017-08-16T08:45:17.920Z,21.10
2017-08-16T08:47:44.044Z,21.30
2017-08-16T08:50:10.092Z,21.40
2017-08-16T08:52:36.908Z,21.40
2017-08-16T08:55:02.991Z,21.40
2017-08-16T08:57:29.062Z,21.70
2017-08-16T08:59:55.146Z,21.40
2017-08-16T09:02:21.239Z,21.30
2017-08-16T09:04:48.028Z,21.00
2017-08-16T09:07:14.096Z,20.90
2017-08-16T09:09:40.195Z,20.70
2017-08-16T09:12:06.292Z,20.80
2017-08-16T09:14:32.378Z,20.90
2017-08-16T09:16:59.220Z,20.90
2017-08-16T09:19:26.029Z,21.10
2017-08-16T09:21:52.078Z,21.10
2017-08-16T09:24:18.187Z,21.40
2017-08-16T09:26:44.270Z,21.60
2017-08-16T09:29:10.338Z,21.80
2017-08-16T09:31:36.458Z,22.00
2017-08-16T09:34:02.542Z,21.70
2017-08-16T09:36:35.319Z,21.80
2017-08-16T09:39:01.415Z,22.00
2017-08-16T09:41:27.507Z,22.20
2017-08-16T09:43:53.578Z,22.60
2017-08-16T09:46:20.420Z,23.10
2017-08-16T09:48:47.242Z,23.00
2017-08-16T09:51:13.280Z,23.00
2017-08-16T09:53:39.585Z,23.10
2017-08-16T09:56:05.626Z,22.90
2017-08-16T09:58:31.704Z,22.60
2017-08-16T10:00:57.836Z,22.20
2017-08-16T10:03:23.895Z,22.00
2017-08-16T10:05:49.959Z,22.00
2017-08-16T10:08:16.183Z,21.70
2017-08-16T10:10:42.977Z,21.20
2017-08-16T10:13:09.046Z,21.20
2017-08-16T10:15:35.926Z,21.10
2017-08-16T10:18:02.084Z,21.10
2017-08-16T10:20:28.176Z,21.00
2017-08-16T10:22:54.274Z,20.90
2017-08-16T10:25:20.338Z,21.10
2017-08-16T10:27:46.400Z,21.20
2017-08-16T10:30:12.492Z,21.40
2017-08-16T10:32:38.551Z,21.70
2017-08-16T10:35:04.634Z,21.70
2017-08-16T10:37:30.743Z,21.70
2017-08-16T10:39:56.790Z,21.70
2017-08-16T10:42:22.864Z,21.80
2017-08-16T10:44:49.730Z,21.90
2017-08-16T10:47:15.808Z,21.80
2017-08-16T10:49:41.878Z,21.90
2017-08-16T10:52:08.091Z,22.20
2017-08-16T10:54:34.274Z,22.50
2017-08-16T10:57:00.354Z,22.90
2017-08-16T10:59:26.455Z,23.30
2017-08-16T11:01:52.564Z,23.60
2017-08-16T11:04:18.642Z,24.00
2017-08-16T11:06:44.717Z,24.40
2017-08-16T11:09:10.779Z,24.70
2017-08-16T11:11:37.652Z,24.60
2017-08-16T11:14:04.307Z,24.60
2017-08-16T11:16:30.414Z,24.30
2017-08-16T11:18:56.504Z,23.80
2017-08-16T11:21:23.354Z,23.30
2017-08-16T11:23:50.141Z,23.00
2017-08-16T11:26:16.218Z,23.00
2017-08-16T11:28:43.161Z,22.20
2017-08-16T11:31:10.020Z,21.60
2017-08-16T11:33:36.242Z,21.60
2017-08-16T11:36:02.364Z,20.80
2017-08-16T11:38:29.163Z,19.90
2017-08-16T11:40:55.562Z,19.90
2017-08-16T11:43:21.664Z,19.60
2017-08-16T11:45:48.574Z,19.40
2017-08-16T11:48:14.703Z,19.40
2017-08-16T11:50:40.856Z,19.60
2017-08-16T11:53:07.764Z,20.00
2017-08-16T11:55:33.928Z,20.00
2017-08-16T11:58:01.066Z,20.10
2017-08-16T12:00:27.944Z,20.10
2017-08-16T12:02:54.108Z,20.10
2017-08-16T12:05:20.310Z,20.10
2017-08-16T12:07:46.557Z,19.90
2017-08-16T12:10:12.750Z,19.90
2017-08-16T12:12:38.932Z,19.90
2017-08-16T12:15:05.104Z,20.10
2017-08-16T12:17:31.205Z,20.10
2017-08-16T12:19:57.315Z,20.30
2017-08-16T12:22:23.382Z,20.50
2017-08-16T12:24:49.590Z,20.70
2017-08-16T12:27:15.766Z,20.90
2017-08-16T12:29:41.908Z,21.30
2017-08-16T12:32:07.960Z,21.60
2017-08-16T12:34:34.112Z,21.50
2017-08-16T12:37:00.996Z,22.00
2017-08-16T12:39:27.069Z,22.00
2017-08-16T12:41:53.951Z,23.00
2017-08-16T12:44:20.093Z,23.00
2017-08-16T12:46:46.211Z,23.60
2017-08-16T12:49:12.342Z,24.00
2017-08-16T12:51:38.402Z,23.90
2017-08-16T12:54:04.486Z,23.50
2017-08-16T12:56:30.576Z,23.40
2017-08-16T12:58:57.372Z,24.10
2017-08-16T13:01:23.477Z,24.10
2017-08-16T13:03:49.738Z,24.30
2017-08-16T13:06:15.797Z,24.80
2017-08-16T13:08:42.639Z,26.30
2017-08-16T13:11:09.518Z,26.80
2017-08-16T13:13:35.612Z,26.80
2017-08-16T13:16:02.430Z,28.00
2017-08-16T13:18:28.580Z,28.00
2017-08-16T13:20:56.351Z,28.00
2017-08-16T13:23:23.271Z,27.50
2017-08-16T13:25:49.388Z,27.50
2017-08-16T13:28:15.503Z,28.30
2017-08-16T13:30:41.573Z,31.00
2017-08-16T13:33:07.673Z,33.10
2017-08-16T13:35:33.789Z,34.50
2017-08-16T13:37:59.917Z,33.60
2017-08-16T13:40:26.041Z,32.90
2017-08-16T13:42:52.127Z,32.30
2017-08-16T13:45:18.897Z,33.10
2017-08-16T13:47:45.009Z,34.60
2017-08-16T13:50:11.076Z,35.90
2017-08-16T13:52:37.181Z,36.40
2017-08-16T13:55:03.273Z,37.60
2017-08-16T13:57:29.371Z,39.40
2017-08-16T13:59:56.175Z,39.20
2017-08-16T14:02:22.291Z,39.10
2017-08-16T14:04:48.385Z,36.80
2017-08-16T14:07:14.450Z,37.00
2017-08-16T14:09:40.549Z,38.60
2017-08-16T14:12:06.687Z,39.60
2017-08-16T14:14:32.815Z,39.80
2017-08-16T14:16:58.940Z,40.60
2017-08-16T14:19:25.036Z,40.90
2017-08-16T14:21:51.164Z,40.70
2017-08-16T14:24:17.318Z,40.10
2017-08-16T14:26:43.440Z,39.80
2017-08-16T14:29:09.846Z,39.70
2017-08-16T14:31:35.928Z,40.80
2017-08-16T14:34:02.022Z,41.10
2017-08-16T14:36:28.147Z,41.80
2017-08-16T14:38:56.872Z,41.90
2017-08-16T14:41:34.121Z,40.80
2017-08-16T14:46:51.506Z,40.90
2017-08-16T14:49:17.673Z,40.20
2017-08-16T14:51:43.755Z,38.10
2017-08-16T14:54:09.910Z,36.50
2017-08-16T14:56:36.035Z,36.80
2017-08-16T14:59:02.872Z,38.30
2017-08-16T15:01:29.762Z,38.50
2017-08-16T15:03:55.952Z,38.50
2017-08-16T15:06:22.784Z,37.60
2017-08-16T15:08:48.905Z,37.60
2017-08-16T15:11:15.748Z,38.10
2017-08-16T15:13:42.564Z,38.80
2017-08-16T15:16:08.681Z,38.80
2017-08-16T15:18:34.792Z,39.10
2017-08-16T15:21:00.876Z,39.60
2017-08-16T15:23:27.738Z,38.50
2017-08-16T15:25:53.825Z,38.50
2017-08-16T15:28:19.892Z,39.30
2017-08-16T15:30:46.001Z,39.10
2017-08-16T15:33:12.853Z,39.50
2017-08-16T15:35:38.943Z,39.40
2017-08-16T15:38:05.080Z,38.00
2017-08-16T15:40:31.236Z,36.30
2017-08-16T15:42:57.419Z,35.70
2017-08-16T15:45:23.614Z,34.40
2017-08-16T15:47:56.577Z,35.80
2017-08-16T15:50:22.800Z,35.90
2017-08-16T15:52:48.941Z,37.10
2017-08-16T15:55:15.090Z,37.00
2017-08-16T15:57:41.206Z,34.70
2017-08-16T16:00:07.330Z,33.50
2017-08-16T16:02:33.408Z,32.40
2017-08-16T16:04:59.586Z,31.70
2017-08-16T16:07:25.692Z,31.50
2017-08-16T16:09:51.798Z,32.90
2017-08-16T16:12:18.680Z,34.50
2017-08-16T16:14:44.982Z,34.40
2017-08-16T16:17:11.296Z,33.50
2017-08-16T16:19:37.522Z,32.60
2017-08-16T16:22:03.738Z,33.70
2017-08-16T16:24:29.868Z,33.70
2017-08-16T16:26:56.159Z,35.40
2017-08-16T16:29:22.286Z,36.20
2017-08-16T16:31:48.448Z,35.80
2017-08-16T16:34:14.633Z,35.50
2017-08-16T16:36:40.790Z,35.80
2017-08-16T16:39:06.957Z,35.00
2017-08-16T16:41:33.146Z,34.80
2017-08-16T16:43:59.399Z,35.10
2017-08-16T16:46:25.525Z,34.50
2017-08-16T16:48:51.724Z,34.10
2017-08-16T16:51:17.974Z,34.00
2017-08-16T16:53:44.872Z,34.10
2017-08-16T16:56:11.087Z,34.40
2017-08-16T16:58:37.205Z,34.70
2017-08-16T17:01:03.491Z,34.30
2017-08-16T17:03:29.696Z,33.20
2017-08-16T17:05:55.873Z,32.10
2017-08-16T17:08:23.743Z,31.40
2017-08-16T17:10:50.595Z,32.20
2017-08-16T17:13:17.433Z,32.60
2017-08-16T17:15:44.269Z,32.10
2017-08-16T17:18:10.505Z,32.00
2017-08-16T17:20:37.347Z,30.50
2017-08-16T17:23:04.152Z,29.70
2017-08-16T17:25:30.245Z,29.60
2017-08-16T17:27:56.313Z,28.90
2017-08-16T17:30:22.375Z,28.40
2017-08-16T17:32:49.195Z,26.80
2017-08-16T17:35:15.301Z,26.80
2017-08-16T17:37:41.403Z,26.30
2017-08-16T17:40:07.493Z,25.80
2017-08-16T17:42:35.378Z,25.00
2017-08-16T17:45:01.522Z,24.90
2017-08-16T17:47:27.674Z,24.70
2017-08-16T17:49:53.736Z,24.40
2017-08-16T17:52:20.547Z,24.20
2017-08-16T17:54:46.684Z,24.10
2017-08-16T17:57:17.848Z,23.90
2017-08-16T17:59:44.001Z,23.80
2017-08-16T18:02:10.240Z,23.70
2017-08-16T18:04:36.379Z,23.60
2017-08-16T18:07:02.447Z,23.40
2017-08-16T18:09:29.631Z,23.10
2017-08-16T18:11:55.934Z,22.90
2017-08-16T18:14:22.810Z,22.50
2017-08-16T18:16:48.893Z,22.50
2017-08-16T18:19:17.430Z,22.50
2017-08-16T18:21:44.884Z,22.30
2017-08-16T18:24:14.838Z,22.10
2017-08-16T18:26:41.013Z,21.90
2017-08-16T18:29:07.147Z,21.90
2017-08-16T18:31:33.301Z,21.90
2017-08-16T18:33:59.676Z,21.50
2017-08-16T18:36:26.528Z,21.20
2017-08-16T18:38:53.399Z,21.10
2017-08-16T18:41:19.685Z,21.10
2017-08-16T18:43:45.759Z,21.00
2017-08-16T18:46:11.911Z,20.90
2017-08-16T18:48:38.045Z,20.80
2017-08-16T18:51:04.977Z,20.90
2017-08-16T18:53:31.099Z,20.90
2017-08-16T18:55:57.255Z,20.90
2017-08-16T18:58:23.565Z,20.80
2017-08-16T19:00:49.958Z,20.80
2017-08-16T19:03:16.130Z,20.80
2017-08-16T19:05:42.259Z,20.70
2017-08-16T19:08:08.393Z,20.60
2017-08-16T19:10:34.488Z,20.50
2017-08-16T19:13:00.623Z,20.40
2017-08-16T19:15:26.809Z,20.30
2017-08-16T19:17:53.672Z,20.20
2017-08-16T19:20:20.683Z,20.20
2017-08-16T19:22:46.826Z,20.30
2017-08-16T19:25:12.930Z,20.30
2017-08-16T19:27:39.261Z,20.20
2017-08-16T19:30:05.395Z,20.10
2017-08-16T19:32:32.299Z,20.00
2017-08-16T19:34:58.455Z,20.00
2017-08-16T19:37:24.691Z,20.00
2017-08-16T19:39:51.520Z,19.70
2017-08-16T19:42:17.670Z,19.60
2017-08-16T19:44:44.548Z,19.80
2017-08-16T19:47:10.644Z,19.70
2017-08-16T19:49:37.494Z,19.70
2017-08-16T19:52:04.347Z,19.70
2017-08-16T19:54:30.474Z,19.70
2017-08-16T19:56:56.615Z,19.70
2017-08-16T19:59:22.716Z,19.70
2017-08-16T20:01:49.629Z,19.50
2017-08-16T20:04:15.726Z,19.40
2017-08-16T20:06:41.845Z,19.40
2017-08-16T20:09:07.942Z,19.30
2017-08-16T20:11:34.100Z,19.10
2017-08-16T20:14:00.266Z,19.10
2017-08-16T20:16:26.329Z,19.20
2017-08-16T20:18:52.411Z,19.30
2017-08-16T20:21:19.477Z,19.00
2017-08-16T20:23:46.373Z,18.90
2017-08-16T20:26:12.485Z,18.90
2017-08-16T20:28:38.577Z,18.70
2017-08-16T20:31:04.641Z,18.60
2017-08-16T20:33:30.756Z,18.60
2017-08-16T20:35:56.862Z,18.50
2017-08-16T20:38:23.689Z,18.50
2017-08-16T20:40:50.506Z,18.50
2017-08-16T20:43:16.609Z,18.50
2017-08-16T20:45:43.028Z,18.60
2017-08-16T20:48:09.078Z,18.60
2017-08-16T20:50:35.176Z,18.50
2017-08-16T20:53:01.291Z,18.60
2017-08-16T20:55:27.406Z,18.60
2017-08-16T20:57:54.233Z,18.40
2017-08-16T21:00:20.328Z,18.30
2017-08-16T21:02:46.435Z,18.30
2017-08-16T21:05:12.546Z,18.30
2017-08-16T21:07:38.610Z,18.30
2017-08-16T21:10:04.724Z,18.30
2017-08-16T21:12:30.849Z,18.30
2017-08-16T21:14:56.943Z,18.20
2017-08-16T21:17:23.065Z,18.20
2017-08-16T21:19:49.874Z,18.20
2017-08-16T21:22:15.959Z,18.20
2017-08-16T21:24:42.062Z,18.20
2017-08-16T21:27:08.153Z,18.20
2017-08-16T21:29:34.289Z,18.20
2017-08-16T21:32:00.375Z,18.10
2017-08-16T21:34:26.493Z,18.00
2017-08-16T21:36:52.560Z,18.00
2017-08-16T21:39:18.652Z,17.90
2017-08-16T21:41:44.798Z,17.90
2017-08-16T21:44:10.934Z,17.90
2017-08-16T21:46:37.392Z,17.80
2017-08-16T21:49:04.236Z,17.90
2017-08-16T21:51:31.074Z,17.90
2017-08-16T21:53:57.916Z,17.80
2017-08-16T21:56:24.757Z,17.80
2017-08-16T21:58:51.603Z,17.80
2017-08-16T22:01:18.454Z,17.70
2017-08-16T22:03:45.373Z,17.60
2017-08-16T22:06:11.498Z,17.60
2017-08-16T22:08:37.555Z,17.60
2017-08-16T22:11:04.398Z,17.60
2017-08-16T22:13:31.265Z,17.60
2017-08-16T22:15:57.416Z,17.60
2017-08-16T22:18:23.492Z,17.50
2017-08-16T22:20:49.647Z,17.50
2017-08-16T22:23:15.754Z,17.50
2017-08-16T22:25:42.008Z,17.50
2017-08-16T22:28:08.584Z,17.50
2017-08-16T22:30:34.669Z,17.50
2017-08-16T22:33:00.729Z,17.40
2017-08-16T22:35:26.799Z,17.30
2017-08-16T22:37:52.891Z,17.20
2017-08-16T22:40:18.977Z,17.20
2017-08-16T22:42:45.163Z,17.00
2017-08-16T22:45:12.394Z,16.90
2017-08-16T22:47:38.486Z,16.90
2017-08-16T22:50:04.577Z,17.00
2017-08-16T22:52:30.679Z,17.00
2017-08-16T22:54:56.741Z,17.10
2017-08-16T22:57:23.017Z,17.10
2017-08-16T22:59:49.109Z,17.00
2017-08-16T23:02:15.192Z,17.00
2017-08-16T23:04:42.175Z,17.10
2017-08-16T23:07:08.273Z,17.10
2017-08-16T23:09:35.102Z,17.10
2017-08-16T23:12:02.314Z,17.10
2017-08-16T23:14:28.392Z,17.10
2017-08-16T23:16:55.204Z,17.00
2017-08-16T23:19:22.639Z,17.00
2017-08-16T23:21:48.721Z,16.90
2017-08-16T23:24:15.560Z,16.90
2017-08-16T23:26:42.719Z,16.90
2017-08-16T23:29:08.789Z,16.90
2017-08-16T23:31:34.870Z,16.80
2017-08-16T23:34:00.960Z,16.80
2017-08-16T23:36:27.030Z,16.70
2017-08-16T23:38:53.190Z,16.80
2017-08-16T23:41:19.270Z,16.80
2017-08-16T23:43:45.358Z,16.70
2017-08-16T23:46:11.455Z,16.80
2017-08-16T23:48:37.981Z,16.80
2017-08-16T23:51:04.087Z,16.80
2017-08-16T23:53:30.149Z,16.80
2017-08-16T23:55:56.507Z,16.70
2017-08-16T23:58:22.608Z,16.70
